sensor_id;sensor_type;location;lat;lon;timestamp;temperature;humidity
73665;DHT22;61964;52.052;4.474;2023-06-14T00:00:00;21.57;53.75
73665;DHT22;61964;52.052;4.474;2023-06-14T00:02:26;21.60;54.12
73665;DHT22;61964;52.052;4.474;2023-06-14T00:04:52;21.58;54.26
73665;DHT22;61964;52.052;4.474;2023-06-14T00:07:18;21.53;54.17
73665;DHT22;61964;52.052;4.474;2023-06-14T00:09:43;21.50;54.28
73665;DHT22;61964;52.052;4.474;2023-06-14T00:12:09;21.46;54.29
73665;DHT22;61964;52.052;4.474;2023-06-14T00:14:35;21.47;54.88
73665;DHT22;61964;52.052;4.474;2023-06-14T00:17:01;21.46;54.57
73665;DHT22;61964;52.052;4.474;2023-06-14T00:19:26;21.39;54.69
73665;DHT22;61964;52.052;4.474;2023-06-14T00:21:52;21.34;55.04
73665;DHT22;61964;52.052;4.474;2023-06-14T00:24:19;21.33;54.95
73665;DHT22;61964;52.052;4.474;2023-06-14T00:26:45;21.34;55.11
73665;DHT22;61964;52.052;4.474;2023-06-14T00:29:11;21.34;55.30
73665;DHT22;61964;52.052;4.474;2023-06-14T00:31:36;21.37;55.30
73665;DHT22;61964;52.052;4.474;2023-06-14T00:34:02;21.34;55.42
73665;DHT22;61964;52.052;4.474;2023-06-14T00:36:28;21.30;55.95
73665;DHT22;61964;52.052;4.474;2023-06-14T00:38:54;21.26;55.06
73665;DHT22;61964;52.052;4.474;2023-06-14T00:41:19;21.22;54.95
73665;DHT22;61964;52.052;4.474;2023-06-14T00:43:45;21.16;54.76
73665;DHT22;61964;52.052;4.474;2023-06-14T00:46:11;21.10;54.85
73665;DHT22;61964;52.052;4.474;2023-06-14T00:48:38;21.12;55.02
73665;DHT22;61964;52.052;4.474;2023-06-14T00:51:05;21.12;54.18
73665;DHT22;61964;52.052;4.474;2023-06-14T00:53:32;21.04;54.61
73665;DHT22;61964;52.052;4.474;2023-06-14T00:56:01;21.09;53.79
73665;DHT22;61964;52.052;4.474;2023-06-14T00:58:27;21.04;53.78
73665;DHT22;61964;52.052;4.474;2023-06-14T01:00:53;21.03;54.26
73665;DHT22;61964;52.052;4.474;2023-06-14T01:03:19;21.02;53.95
73665;DHT22;61964;52.052;4.474;2023-06-14T01:05:51;21.02;52.97
73665;DHT22;61964;52.052;4.474;2023-06-14T01:08:34;20.92;53.12
73665;DHT22;61964;52.052;4.474;2023-06-14T01:11:16;20.83;52.84
73665;DHT22;61964;52.052;4.474;2023-06-14T01:13:46;20.86;53.10
73665;DHT22;61964;52.052;4.474;2023-06-14T01:16:12;20.86;52.42
73665;DHT22;61964;52.052;4.474;2023-06-14T01:18:39;20.81;52.30
73665;DHT22;61964;52.052;4.474;2023-06-14T01:21:20;20.73;52.50
73665;DHT22;61964;52.052;4.474;2023-06-14T01:23:47;20.75;53.13
73665;DHT22;61964;52.052;4.474;2023-06-14T01:26:22;20.73;52.30
73665;DHT22;61964;52.052;4.474;2023-06-14T01:28:49;20.72;52.66
73665;DHT22;61964;52.052;4.474;2023-06-14T01:31:21;20.71;52.08
73665;DHT22;61964;52.052;4.474;2023-06-14T01:33:49;20.64;51.60
73665;DHT22;61964;52.052;4.474;2023-06-14T01:36:18;20.64;51.58
73665;DHT22;61964;52.052;4.474;2023-06-14T01:38:46;20.55;51.94
73665;DHT22;61964;52.052;4.474;2023-06-14T01:41:15;20.54;52.25
73665;DHT22;61964;52.052;4.474;2023-06-14T01:43:42;20.45;52.05
73665;DHT22;61964;52.052;4.474;2023-06-14T01:46:10;20.35;52.52
73665;DHT22;61964;52.052;4.474;2023-06-14T01:48:36;20.38;52.17
73665;DHT22;61964;52.052;4.474;2023-06-14T01:51:02;20.37;52.16
73665;DHT22;61964;52.052;4.474;2023-06-14T01:53:28;20.40;52.04
73665;DHT22;61964;52.052;4.474;2023-06-14T01:55:53;20.30;51.83
73665;DHT22;61964;52.052;4.474;2023-06-14T01:58:19;20.24;52.42
73665;DHT22;61964;52.052;4.474;2023-06-14T02:00:46;20.21;52.52
73665;DHT22;61964;52.052;4.474;2023-06-14T02:03:13;20.16;51.90
73665;DHT22;61964;52.052;4.474;2023-06-14T02:05:39;20.13;52.14
73665;DHT22;61964;52.052;4.474;2023-06-14T02:08:06;20.10;52.18
73665;DHT22;61964;52.052;4.474;2023-06-14T02:10:33;20.09;52.53
73665;DHT22;61964;52.052;4.474;2023-06-14T02:12:59;20.06;52.42
73665;DHT22;61964;52.052;4.474;2023-06-14T02:15:24;19.98;52.49
73665;DHT22;61964;52.052;4.474;2023-06-14T02:18:02;19.87;52.35
73665;DHT22;61964;52.052;4.474;2023-06-14T02:20:29;19.90;52.30
73665;DHT22;61964;52.052;4.474;2023-06-14T02:22:55;19.84;52.55
73665;DHT22;61964;52.052;4.474;2023-06-14T02:25:20;19.87;53.27
73665;DHT22;61964;52.052;4.474;2023-06-14T02:27:46;19.84;52.62
73665;DHT22;61964;52.052;4.474;2023-06-14T02:30:12;19.90;52.77
73665;DHT22;61964;52.052;4.474;2023-06-14T02:32:38;19.84;53.10
73665;DHT22;61964;52.052;4.474;2023-06-14T02:35:06;19.86;52.18
73665;DHT22;61964;52.052;4.474;2023-06-14T02:37:32;19.86;52.31
73665;DHT22;61964;52.052;4.474;2023-06-14T02:39:58;19.83;53.04
73665;DHT22;61964;52.052;4.474;2023-06-14T02:42:24;19.79;52.36
73665;DHT22;61964;52.052;4.474;2023-06-14T02:44:49;19.70;52.42
73665;DHT22;61964;52.052;4.474;2023-06-14T02:47:19;19.65;52.45
73665;DHT22;61964;52.052;4.474;2023-06-14T02:49:45;19.70;52.71
73665;DHT22;61964;52.052;4.474;2023-06-14T02:52:14;19.67;53.70
73665;DHT22;61964;52.052;4.474;2023-06-14T02:54:39;19.65;53.41
73665;DHT22;61964;52.052;4.474;2023-06-14T02:57:05;19.65;53.09
73665;DHT22;61964;52.052;4.474;2023-06-14T02:59:34;19.62;52.93
73665;DHT22;61964;52.052;4.474;2023-06-14T03:02:08;19.60;53.15
73665;DHT22;61964;52.052;4.474;2023-06-14T03:04:34;19.56;52.61
73665;DHT22;61964;52.052;4.474;2023-06-14T03:07:03;19.56;52.38
73665;DHT22;61964;52.052;4.474;2023-06-14T03:09:37;19.53;53.22
73665;DHT22;61964;52.052;4.474;2023-06-14T03:12:18;19.53;52.58
73665;DHT22;61964;52.052;4.474;2023-06-14T03:14:44;19.48;52.54
73665;DHT22;61964;52.052;4.474;2023-06-14T03:17:12;19.41;53.46
73665;DHT22;61964;52.052;4.474;2023-06-14T03:19:38;19.42;53.21
73665;DHT22;61964;52.052;4.474;2023-06-14T03:22:04;19.45;53.20
73665;DHT22;61964;52.052;4.474;2023-06-14T03:24:30;19.45;52.86
73665;DHT22;61964;52.052;4.474;2023-06-14T03:27:02;19.43;52.77
73665;DHT22;61964;52.052;4.474;2023-06-14T03:29:28;19.41;53.32
73665;DHT22;61964;52.052;4.474;2023-06-14T03:32:03;19.45;52.94
73665;DHT22;61964;52.052;4.474;2023-06-14T03:34:29;19.36;53.23
73665;DHT22;61964;52.052;4.474;2023-06-14T03:36:56;19.29;53.69
73665;DHT22;61964;52.052;4.474;2023-06-14T03:39:37;19.26;53.26
73665;DHT22;61964;52.052;4.474;2023-06-14T03:42:03;19.25;53.34
73665;DHT22;61964;52.052;4.474;2023-06-14T03:44:29;19.26;52.87
73665;DHT22;61964;52.052;4.474;2023-06-14T03:46:54;19.25;53.30
73665;DHT22;61964;52.052;4.474;2023-06-14T03:49:20;19.22;53.12
73665;DHT22;61964;52.052;4.474;2023-06-14T03:51:46;19.23;53.50
73665;DHT22;61964;52.052;4.474;2023-06-14T03:54:16;19.21;53.18
73665;DHT22;61964;52.052;4.474;2023-06-14T03:56:42;19.22;54.04
73665;DHT22;61964;52.052;4.474;2023-06-14T03:59:08;19.23;53.49
73665;DHT22;61964;52.052;4.474;2023-06-14T04:01:33;19.22;53.19
73665;DHT22;61964;52.052;4.474;2023-06-14T04:03:59;19.18;53.04
73665;DHT22;61964;52.052;4.474;2023-06-14T04:06:25;19.15;53.84
73665;DHT22;61964;52.052;4.474;2023-06-14T04:08:58;19.15;53.28
73665;DHT22;61964;52.052;4.474;2023-06-14T04:11:27;19.14;53.25
73665;DHT22;61964;52.052;4.474;2023-06-14T04:13:53;19.15;52.79
73665;DHT22;61964;52.052;4.474;2023-06-14T04:16:22;19.05;53.53
73665;DHT22;61964;52.052;4.474;2023-06-14T04:18:47;19.10;53.15
73665;DHT22;61964;52.052;4.474;2023-06-14T04:21:16;19.07;52.82
73665;DHT22;61964;52.052;4.474;2023-06-14T04:23:42;19.08;52.95
73665;DHT22;61964;52.052;4.474;2023-06-14T04:26:09;19.08;53.02
73665;DHT22;61964;52.052;4.474;2023-06-14T04:28:36;19.12;53.27
73665;DHT22;61964;52.052;4.474;2023-06-14T04:31:07;19.08;53.21
73665;DHT22;61964;52.052;4.474;2023-06-14T04:33:36;19.12;53.12
73665;DHT22;61964;52.052;4.474;2023-06-14T04:36:11;19.22;53.04
73665;DHT22;61964;52.052;4.474;2023-06-14T04:38:43;19.26;52.78
73665;DHT22;61964;52.052;4.474;2023-06-14T04:41:10;19.26;53.01
73665;DHT22;61964;52.052;4.474;2023-06-14T04:43:37;19.32;52.97
73665;DHT22;61964;52.052;4.474;2023-06-14T04:46:06;19.29;52.71
73665;DHT22;61964;52.052;4.474;2023-06-14T04:48:37;19.36;52.30
73665;DHT22;61964;52.052;4.474;2023-06-14T04:51:07;19.39;52.52
73665;DHT22;61964;52.052;4.474;2023-06-14T04:53:33;19.45;52.75
73665;DHT22;61964;52.052;4.474;2023-06-14T04:55:59;19.53;52.44
73665;DHT22;61964;52.052;4.474;2023-06-14T04:58:27;19.59;51.71
73665;DHT22;61964;52.052;4.474;2023-06-14T05:00:54;19.58;52.42
73665;DHT22;61964;52.052;4.474;2023-06-14T05:03:22;19.67;51.86
73665;DHT22;61964;52.052;4.474;2023-06-14T05:05:50;19.69;51.63
73665;DHT22;61964;52.052;4.474;2023-06-14T05:08:16;19.76;52.42
73665;DHT22;61964;52.052;4.474;2023-06-14T05:10:42;19.76;51.55
73665;DHT22;61964;52.052;4.474;2023-06-14T05:13:07;19.77;51.86
73665;DHT22;61964;52.052;4.474;2023-06-14T05:15:33;19.83;51.36
73665;DHT22;61964;52.052;4.474;2023-06-14T05:17:59;19.93;52.45
73665;DHT22;61964;52.052;4.474;2023-06-14T05:20:25;20.00;50.72
73665;DHT22;61964;52.052;4.474;2023-06-14T05:22:55;20.03;50.59
73665;DHT22;61964;52.052;4.474;2023-06-14T05:25:22;20.01;50.62
73665;DHT22;61964;52.052;4.474;2023-06-14T05:27:48;20.04;50.48
73665;DHT22;61964;52.052;4.474;2023-06-14T05:30:15;20.16;50.31
73665;DHT22;61964;52.052;4.474;2023-06-14T05:32:41;20.25;50.66
73665;DHT22;61964;52.052;4.474;2023-06-14T05:35:07;20.27;50.25
73665;DHT22;61964;52.052;4.474;2023-06-14T05:37:33;20.35;50.06
73665;DHT22;61964;52.052;4.474;2023-06-14T05:39:59;20.38;49.98
73665;DHT22;61964;52.052;4.474;2023-06-14T05:42:25;20.47;50.37
73665;DHT22;61964;52.052;4.474;2023-06-14T05:44:50;20.48;49.46
73665;DHT22;61964;52.052;4.474;2023-06-14T05:47:16;20.54;50.03
73665;DHT22;61964;52.052;4.474;2023-06-14T05:49:42;20.52;50.66
73665;DHT22;61964;52.052;4.474;2023-06-14T05:52:08;20.52;49.80
73665;DHT22;61964;52.052;4.474;2023-06-14T05:54:34;20.54;50.44
73665;DHT22;61964;52.052;4.474;2023-06-14T05:57:00;20.64;51.07
73665;DHT22;61964;52.052;4.474;2023-06-14T05:59:27;20.75;49.64
73665;DHT22;61964;52.052;4.474;2023-06-14T06:01:53;20.78;49.63
73665;DHT22;61964;52.052;4.474;2023-06-14T06:04:19;20.82;49.16
73665;DHT22;61964;52.052;4.474;2023-06-14T06:06:45;20.92;49.81
73665;DHT22;61964;52.052;4.474;2023-06-14T06:09:12;20.99;50.93
73665;DHT22;61964;52.052;4.474;2023-06-14T06:11:40;21.10;48.63
73665;DHT22;61964;52.052;4.474;2023-06-14T06:14:06;21.14;49.56
73665;DHT22;61964;52.052;4.474;2023-06-14T06:16:32;21.23;47.79
73665;DHT22;61964;52.052;4.474;2023-06-14T06:18:58;21.30;48.65
73665;DHT22;61964;52.052;4.474;2023-06-14T06:21:24;21.30;47.43
73665;DHT22;61964;52.052;4.474;2023-06-14T06:24:05;21.33;46.69
73665;DHT22;61964;52.052;4.474;2023-06-14T06:26:32;21.36;49.53
73665;DHT22;61964;52.052;4.474;2023-06-14T06:28:58;21.51;45.92
73665;DHT22;61964;52.052;4.474;2023-06-14T06:31:24;21.57;45.90
73665;DHT22;61964;52.052;4.474;2023-06-14T06:33:56;21.63;46.18
73665;DHT22;61964;52.052;4.474;2023-06-14T06:36:22;21.65;45.15
73665;DHT22;61964;52.052;4.474;2023-06-14T06:38:48;21.65;46.64
73665;DHT22;61964;52.052;4.474;2023-06-14T06:41:14;21.73;46.27
73665;DHT22;61964;52.052;4.474;2023-06-14T06:43:39;21.88;45.80
73665;DHT22;61964;52.052;4.474;2023-06-14T06:46:05;21.97;45.60
73665;DHT22;61964;52.052;4.474;2023-06-14T06:48:31;21.98;45.67
73665;DHT22;61964;52.052;4.474;2023-06-14T06:50:57;22.11;45.17
73665;DHT22;61964;52.052;4.474;2023-06-14T06:53:22;22.11;45.80
73665;DHT22;61964;52.052;4.474;2023-06-14T06:55:48;22.13;45.37
73665;DHT22;61964;52.052;4.474;2023-06-14T06:58:14;22.18;44.97
73665;DHT22;61964;52.052;4.474;2023-06-14T07:00:40;22.21;45.96
73665;DHT22;61964;52.052;4.474;2023-06-14T07:03:06;22.33;45.83
73665;DHT22;61964;52.052;4.474;2023-06-14T07:05:32;22.39;44.26
73665;DHT22;61964;52.052;4.474;2023-06-14T07:07:58;22.48;45.47
73665;DHT22;61964;52.052;4.474;2023-06-14T07:10:24;22.46;44.41
73665;DHT22;61964;52.052;4.474;2023-06-14T07:12:53;22.49;43.88
73665;DHT22;61964;52.052;4.474;2023-06-14T07:15:18;22.49;46.01
73665;DHT22;61964;52.052;4.474;2023-06-14T07:17:44;22.67;45.28
73665;DHT22;61964;52.052;4.474;2023-06-14T07:20:11;22.76;44.32
73665;DHT22;61964;52.052;4.474;2023-06-14T07:22:42;22.87;46.19
73665;DHT22;61964;52.052;4.474;2023-06-14T07:25:12;22.96;43.70
73665;DHT22;61964;52.052;4.474;2023-06-14T07:27:42;22.94;43.82
73665;DHT22;61964;52.052;4.474;2023-06-14T07:30:09;22.99;44.09
73665;DHT22;61964;52.052;4.474;2023-06-14T07:32:36;23.10;43.49
73665;DHT22;61964;52.052;4.474;2023-06-14T07:35:02;23.07;44.02
73665;DHT22;61964;52.052;4.474;2023-06-14T07:37:28;23.10;44.07
73665;DHT22;61964;52.052;4.474;2023-06-14T07:39:54;23.27;43.92
73665;DHT22;61964;52.052;4.474;2023-06-14T07:42:20;23.27;43.66
73665;DHT22;61964;52.052;4.474;2023-06-14T07:44:46;23.25;43.95
73665;DHT22;61964;52.052;4.474;2023-06-14T07:47:12;23.30;44.45
73665;DHT22;61964;52.052;4.474;2023-06-14T07:49:37;23.44;43.71
73665;DHT22;61964;52.052;4.474;2023-06-14T07:52:03;23.58;44.55
73665;DHT22;61964;52.052;4.474;2023-06-14T07:54:30;23.71;45.71
73665;DHT22;61964;52.052;4.474;2023-06-14T07:56:58;23.85;43.33
73665;DHT22;61964;52.052;4.474;2023-06-14T07:59:26;23.88;42.48
73665;DHT22;61964;52.052;4.474;2023-06-14T08:01:52;23.86;42.42
73665;DHT22;61964;52.052;4.474;2023-06-14T08:04:17;23.90;43.57
73665;DHT22;61964;52.052;4.474;2023-06-14T08:06:43;24.03;42.94
73665;DHT22;61964;52.052;4.474;2023-06-14T08:09:13;24.12;42.94
73665;DHT22;61964;52.052;4.474;2023-06-14T08:11:39;24.19;42.10
73665;DHT22;61964;52.052;4.474;2023-06-14T08:14:04;24.22;43.03
73665;DHT22;61964;52.052;4.474;2023-06-14T08:16:30;24.36;43.12
73665;DHT22;61964;52.052;4.474;2023-06-14T08:18:56;24.54;41.92
73665;DHT22;61964;52.052;4.474;2023-06-14T08:21:22;24.64;41.46
73665;DHT22;61964;52.052;4.474;2023-06-14T08:23:47;24.63;40.96
73665;DHT22;61964;52.052;4.474;2023-06-14T08:26:14;24.60;40.62
73665;DHT22;61964;52.052;4.474;2023-06-14T08:28:40;24.67;41.58
73665;DHT22;61964;52.052;4.474;2023-06-14T08:31:05;24.84;43.97
73665;DHT22;61964;52.052;4.474;2023-06-14T08:33:31;25.01;41.09
73665;DHT22;61964;52.052;4.474;2023-06-14T08:36:00;25.11;42.29
73665;DHT22;61964;52.052;4.474;2023-06-14T08:38:26;25.19;39.96
73665;DHT22;61964;52.052;4.474;2023-06-14T08:40:52;25.23;40.74
73665;DHT22;61964;52.052;4.474;2023-06-14T08:43:22;25.14;38.67
73665;DHT22;61964;52.052;4.474;2023-06-14T08:45:48;25.11;40.96
73665;DHT22;61964;52.052;4.474;2023-06-14T08:48:18;25.19;41.37
73665;DHT22;61964;52.052;4.474;2023-06-14T08:50:48;25.46;38.94
73665;DHT22;61964;52.052;4.474;2023-06-14T08:53:15;25.63;38.70
73665;DHT22;61964;52.052;4.474;2023-06-14T08:55:45;25.59;36.53
73665;DHT22;61964;52.052;4.474;2023-06-14T08:58:11;25.58;37.96
73665;DHT22;61964;52.052;4.474;2023-06-14T09:00:40;25.69;37.47
73665;DHT22;61964;52.052;4.474;2023-06-14T09:03:08;25.81;36.61
73665;DHT22;61964;52.052;4.474;2023-06-14T09:05:39;25.86;37.03
73665;DHT22;61964;52.052;4.474;2023-06-14T09:08:05;25.96;37.19
73665;DHT22;61964;52.052;4.474;2023-06-14T09:10:32;26.04;36.56
73665;DHT22;61964;52.052;4.474;2023-06-14T09:13:03;26.16;36.32
73665;DHT22;61964;52.052;4.474;2023-06-14T09:15:33;26.25;37.62
73665;DHT22;61964;52.052;4.474;2023-06-14T09:18:01;26.44;36.69
73665;DHT22;61964;52.052;4.474;2023-06-14T09:20:30;26.55;36.97
73665;DHT22;61964;52.052;4.474;2023-06-14T09:22:56;26.49;35.27
73665;DHT22;61964;52.052;4.474;2023-06-14T09:25:21;26.49;36.36
73665;DHT22;61964;52.052;4.474;2023-06-14T09:27:48;26.59;36.92
73665;DHT22;61964;52.052;4.474;2023-06-14T09:30:14;26.82;35.11
73665;DHT22;61964;52.052;4.474;2023-06-14T09:32:40;26.98;35.85
73665;DHT22;61964;52.052;4.474;2023-06-14T09:35:07;27.03;36.10
73665;DHT22;61964;52.052;4.474;2023-06-14T09:37:33;27.12;35.15
73665;DHT22;61964;52.052;4.474;2023-06-14T09:40:00;26.98;33.45
73665;DHT22;61964;52.052;4.474;2023-06-14T09:42:26;26.79;34.26
73665;DHT22;61964;52.052;4.474;2023-06-14T09:44:55;26.73;34.10
73665;DHT22;61964;52.052;4.474;2023-06-14T09:47:22;26.65;34.46
73665;DHT22;61964;52.052;4.474;2023-06-14T09:49:49;26.85;34.10
73665;DHT22;61964;52.052;4.474;2023-06-14T09:52:17;27.03;35.18
73665;DHT22;61964;52.052;4.474;2023-06-14T09:54:46;27.17;33.94
73665;DHT22;61964;52.052;4.474;2023-06-14T09:57:20;27.24;35.45
73665;DHT22;61964;52.052;4.474;2023-06-14T09:59:47;27.34;35.49
73665;DHT22;61964;52.052;4.474;2023-06-14T10:02:34;27.55;33.85
73665;DHT22;61964;52.052;4.474;2023-06-14T10:05:07;27.72;34.32
73665;DHT22;61964;52.052;4.474;2023-06-14T10:07:59;27.60;33.09
73665;DHT22;61964;52.052;4.474;2023-06-14T10:10:25;27.54;34.20
73665;DHT22;61964;52.052;4.474;2023-06-14T10:12:52;27.58;30.19
73665;DHT22;61964;52.052;4.474;2023-06-14T10:15:35;27.58;31.85
73665;DHT22;61964;52.052;4.474;2023-06-14T10:21:43;27.94;32.11
73665;DHT22;61964;52.052;4.474;2023-06-14T10:24:16;28.12;32.48
73665;DHT22;61964;52.052;4.474;2023-06-14T10:26:58;28.25;34.13
73665;DHT22;61964;52.052;4.474;2023-06-14T10:29:26;28.38;33.76
73665;DHT22;61964;52.052;4.474;2023-06-14T10:31:57;28.56;31.86
73665;DHT22;61964;52.052;4.474;2023-06-14T10:34:24;28.69;33.95
73665;DHT22;61964;52.052;4.474;2023-06-14T10:37:07;28.77;30.63
73665;DHT22;61964;52.052;4.474;2023-06-14T10:39:42;28.80;29.64
73665;DHT22;61964;52.052;4.474;2023-06-14T10:42:10;28.89;31.55
73665;DHT22;61964;52.052;4.474;2023-06-14T10:47:33;28.77;30.26
73665;DHT22;61964;52.052;4.474;2023-06-14T10:50:27;28.89;29.64
73665;DHT22;61964;52.052;4.474;2023-06-14T10:52:56;28.77;28.08
73665;DHT22;61964;52.052;4.474;2023-06-14T10:55:22;28.70;29.73
73665;DHT22;61964;52.052;4.474;2023-06-14T10:57:52;28.70;29.00
73665;DHT22;61964;52.052;4.474;2023-06-14T11:00:24;28.67;28.59
73665;DHT22;61964;52.052;4.474;2023-06-14T11:06:14;28.89;27.70
73665;DHT22;61964;52.052;4.474;2023-06-14T11:09:37;28.89;28.82
73665;DHT22;61964;52.052;4.474;2023-06-14T11:12:10;28.79;29.25
73665;DHT22;61964;52.052;4.474;2023-06-14T11:14:38;28.90;29.45
73665;DHT22;61964;52.052;4.474;2023-06-14T11:17:04;29.11;28.73
73665;DHT22;61964;52.052;4.474;2023-06-14T11:19:30;29.31;28.84
73665;DHT22;61964;52.052;4.474;2023-06-14T11:21:57;29.54;30.72
73665;DHT22;61964;52.052;4.474;2023-06-14T11:24:22;29.62;27.54
73665;DHT22;61964;52.052;4.474;2023-06-14T11:26:48;29.54;28.02
73665;DHT22;61964;52.052;4.474;2023-06-14T11:29:15;29.66;29.24
73665;DHT22;61964;52.052;4.474;2023-06-14T11:31:45;29.57;26.67
73665;DHT22;61964;52.052;4.474;2023-06-14T11:34:12;29.25;28.36
73665;DHT22;61964;52.052;4.474;2023-06-14T11:36:38;28.74;27.69
73665;DHT22;61964;52.052;4.474;2023-06-14T11:39:06;28.67;27.91
73665;DHT22;61964;52.052;4.474;2023-06-14T11:41:43;28.96;29.71
73665;DHT22;61964;52.052;4.474;2023-06-14T11:44:09;29.35;27.45
73665;DHT22;61964;52.052;4.474;2023-06-14T11:46:35;29.68;27.62
73665;DHT22;61964;52.052;4.474;2023-06-14T11:49:02;29.69;26.51
73665;DHT22;61964;52.052;4.474;2023-06-14T11:51:34;30.08;27.51
73665;DHT22;61964;52.052;4.474;2023-06-14T11:54:03;30.08;27.41
73665;DHT22;61964;52.052;4.474;2023-06-14T11:56:33;30.21;26.22
73665;DHT22;61964;52.052;4.474;2023-06-14T11:58:59;30.51;25.98
73665;DHT22;61964;52.052;4.474;2023-06-14T12:01:25;30.85;25.34
73665;DHT22;61964;52.052;4.474;2023-06-14T12:03:53;31.21;24.87
73665;DHT22;61964;52.052;4.474;2023-06-14T12:06:30;31.53;26.08
73665;DHT22;61964;52.052;4.474;2023-06-14T12:08:59;31.80;24.09
73665;DHT22;61964;52.052;4.474;2023-06-14T12:11:32;31.83;24.82
73665;DHT22;61964;52.052;4.474;2023-06-14T12:13:58;31.67;24.46
73665;DHT22;61964;52.052;4.474;2023-06-14T12:16:31;31.33;24.50
73665;DHT22;61964;52.052;4.474;2023-06-14T12:19:01;31.35;24.44
73665;DHT22;61964;52.052;4.474;2023-06-14T12:21:33;31.26;24.50
73665;DHT22;61964;52.052;4.474;2023-06-14T12:24:03;31.43;24.75
73665;DHT22;61964;52.052;4.474;2023-06-14T12:26:29;31.80;24.87
73665;DHT22;61964;52.052;4.474;2023-06-14T12:28:56;32.03;24.97
73665;DHT22;61964;52.052;4.474;2023-06-14T12:31:22;32.11;24.58
73665;DHT22;61964;52.052;4.474;2023-06-14T12:33:48;31.84;24.92
73665;DHT22;61964;52.052;4.474;2023-06-14T12:36:14;31.84;25.39
73665;DHT22;61964;52.052;4.474;2023-06-14T12:38:55;31.97;24.77
73665;DHT22;61964;52.052;4.474;2023-06-14T12:41:22;31.86;24.49
73665;DHT22;61964;52.052;4.474;2023-06-14T12:43:48;31.66;25.04
73665;DHT22;61964;52.052;4.474;2023-06-14T12:46:14;31.70;25.22
73665;DHT22;61964;52.052;4.474;2023-06-14T12:48:40;31.90;25.05
73665;DHT22;61964;52.052;4.474;2023-06-14T12:51:05;31.86;24.41
73665;DHT22;61964;52.052;4.474;2023-06-14T12:53:31;31.80;24.37
73665;DHT22;61964;52.052;4.474;2023-06-14T12:55:57;31.76;25.41
73665;DHT22;61964;52.052;4.474;2023-06-14T12:58:23;31.87;24.22
73665;DHT22;61964;52.052;4.474;2023-06-14T13:00:49;32.10;24.37
73665;DHT22;61964;52.052;4.474;2023-06-14T13:03:15;32.10;24.00
73665;DHT22;61964;52.052;4.474;2023-06-14T13:05:41;31.80;24.40
73665;DHT22;61964;52.052;4.474;2023-06-14T13:08:10;31.39;24.90
73665;DHT22;61964;52.052;4.474;2023-06-14T13:10:36;31.52;24.68
73665;DHT22;61964;52.052;4.474;2023-06-14T13:13:02;31.70;24.60
73665;DHT22;61964;52.052;4.474;2023-06-14T13:15:29;31.77;24.21
73665;DHT22;61964;52.052;4.474;2023-06-14T13:17:58;31.89;24.57
73665;DHT22;61964;52.052;4.474;2023-06-14T13:20:24;31.89;23.65
73665;DHT22;61964;52.052;4.474;2023-06-14T13:22:50;31.87;24.26
73665;DHT22;61964;52.052;4.474;2023-06-14T13:25:16;32.01;24.41
73665;DHT22;61964;52.052;4.474;2023-06-14T13:27:41;32.13;24.59
73665;DHT22;61964;52.052;4.474;2023-06-14T13:30:07;32.52;26.82
73665;DHT22;61964;52.052;4.474;2023-06-14T13:32:34;32.79;25.89
73665;DHT22;61964;52.052;4.474;2023-06-14T13:35:00;32.45;24.34
73665;DHT22;61964;52.052;4.474;2023-06-14T13:37:26;32.13;25.09
73665;DHT22;61964;52.052;4.474;2023-06-14T13:39:52;32.03;27.10
73665;DHT22;61964;52.052;4.474;2023-06-14T13:42:17;31.80;25.16
73665;DHT22;61964;52.052;4.474;2023-06-14T13:44:43;31.52;25.61
73665;DHT22;61964;52.052;4.474;2023-06-14T13:47:09;31.32;26.11
73665;DHT22;61964;52.052;4.474;2023-06-14T13:49:34;31.30;25.58
73665;DHT22;61964;52.052;4.474;2023-06-14T13:52:01;31.50;26.43
73665;DHT22;61964;52.052;4.474;2023-06-14T13:54:26;31.65;25.92
73665;DHT22;61964;52.052;4.474;2023-06-14T13:56:52;31.43;26.33
73665;DHT22;61964;52.052;4.474;2023-06-14T13:59:18;31.26;24.54
73665;DHT22;61964;52.052;4.474;2023-06-14T14:01:44;31.42;25.27
73665;DHT22;61964;52.052;4.474;2023-06-14T14:04:10;31.98;24.94
73665;DHT22;61964;52.052;4.474;2023-06-14T14:06:36;32.65;24.98
73665;DHT22;61964;52.052;4.474;2023-06-14T14:09:03;32.90;24.59
73665;DHT22;61964;52.052;4.474;2023-06-14T14:11:28;32.83;24.18
73665;DHT22;61964;52.052;4.474;2023-06-14T14:13:58;32.49;24.07
73665;DHT22;61964;52.052;4.474;2023-06-14T14:16:24;32.44;24.24
73665;DHT22;61964;52.052;4.474;2023-06-14T14:18:50;32.35;25.01
73665;DHT22;61964;52.052;4.474;2023-06-14T14:21:16;32.49;25.22
73665;DHT22;61964;52.052;4.474;2023-06-14T14:23:41;32.58;25.12
73665;DHT22;61964;52.052;4.474;2023-06-14T14:26:07;32.64;23.91
73665;DHT22;61964;52.052;4.474;2023-06-14T14:28:33;32.48;24.65
73665;DHT22;61964;52.052;4.474;2023-06-14T14:30:59;31.89;24.74
73665;DHT22;61964;52.052;4.474;2023-06-14T14:33:25;31.40;25.43
73665;DHT22;61964;52.052;4.474;2023-06-14T14:35:51;31.14;26.27
73665;DHT22;61964;52.052;4.474;2023-06-14T14:38:17;31.32;26.77
73665;DHT22;61964;52.052;4.474;2023-06-14T14:40:43;31.25;26.90
73665;DHT22;61964;52.052;4.474;2023-06-14T14:43:10;31.21;26.18
73665;DHT22;61964;52.052;4.474;2023-06-14T14:45:36;31.19;25.66
73665;DHT22;61964;52.052;4.474;2023-06-14T14:48:02;30.95;25.39
73665;DHT22;61964;52.052;4.474;2023-06-14T14:50:28;30.48;27.32
73665;DHT22;61964;52.052;4.474;2023-06-14T14:52:54;30.02;26.34
73665;DHT22;61964;52.052;4.474;2023-06-14T14:55:20;29.71;27.91
73665;DHT22;61964;52.052;4.474;2023-06-14T14:57:46;29.55;27.20
73665;DHT22;61964;52.052;4.474;2023-06-14T15:00:13;29.45;28.18
73665;DHT22;61964;52.052;4.474;2023-06-14T15:02:39;29.48;27.41
73665;DHT22;61964;52.052;4.474;2023-06-14T15:05:05;29.47;29.71
73665;DHT22;61964;52.052;4.474;2023-06-14T15:07:31;29.51;28.87
73665;DHT22;61964;52.052;4.474;2023-06-14T15:10:06;29.47;27.73
73665;DHT22;61964;52.052;4.474;2023-06-14T15:12:32;29.44;28.08
73665;DHT22;61964;52.052;4.474;2023-06-14T15:14:58;29.44;27.63
73665;DHT22;61964;52.052;4.474;2023-06-14T15:17:24;29.31;27.82
73665;DHT22;61964;52.052;4.474;2023-06-14T15:19:50;29.17;28.57
73665;DHT22;61964;52.052;4.474;2023-06-14T15:22:16;29.12;28.28
73665;DHT22;61964;52.052;4.474;2023-06-14T15:24:43;29.11;28.23
73665;DHT22;61964;52.052;4.474;2023-06-14T15:27:09;28.97;28.58
73665;DHT22;61964;52.052;4.474;2023-06-14T15:29:36;29.06;30.33
73665;DHT22;61964;52.052;4.474;2023-06-14T15:32:02;29.08;28.52
73665;DHT22;61964;52.052;4.474;2023-06-14T15:34:28;28.99;28.05
73665;DHT22;61964;52.052;4.474;2023-06-14T15:36:54;28.93;28.74
73665;DHT22;61964;52.052;4.474;2023-06-14T15:39:20;28.89;28.97
73665;DHT22;61964;52.052;4.474;2023-06-14T15:41:47;28.97;28.86